createdAt,value
2022-12-04T00:01:47.289Z,100685.89
2022-12-04T00:04:18.252Z,100680.48
2022-12-04T00:06:51.651Z,100687.02
2022-12-04T00:09:24.998Z,100691.64
2022-12-04T00:11:55.623Z,100698.13
2022-12-04T00:14:26.241Z,100696.14
2022-12-04T00:16:56.958Z,100695.13
2022-12-04T00:19:27.537Z,100689.72
2022-12-04T00:21:58.227Z,100687.83
2022-12-04T00:24:29.124Z,100692.91
2022-12-04T00:26:59.797Z,100685.21
2022-12-04T00:29:30.891Z,100684.27
2022-12-04T00:32:01.619Z,100683.30
2022-12-04T00:34:32.468Z,100684.78
2022-12-04T00:37:03.346Z,100686.39
2022-12-04T00:39:34.064Z,100682.83
2022-12-04T00:42:05.038Z,100686.17
2022-12-04T00:44:35.799Z,100683.55
2022-12-04T00:47:06.509Z,100685.27
2022-12-04T00:49:37.351Z,100681.11
2022-12-04T00:52:08.079Z,100682.27
2022-12-04T00:54:38.778Z,100683.00
2022-12-04T00:57:09.664Z,100678.23
2022-12-04T00:59:40.979Z,100682.95
2022-12-04T01:02:11.615Z,100679.24
2022-12-04T01:04:42.290Z,100676.20
2022-12-04T01:07:13.025Z,100672.78
2022-12-04T01:09:43.821Z,100673.11
2022-12-04T01:12:20.347Z,100670.19
2022-12-04T01:14:51.543Z,100665.45
2022-12-04T01:17:22.171Z,100661.48
2022-12-04T01:19:53.078Z,100663.64
2022-12-04T01:22:24.072Z,100663.57
2022-12-04T01:24:58.016Z,100660.15
2022-12-04T01:27:29.151Z,100662.77
2022-12-04T01:29:59.950Z,100660.04
2022-12-04T01:32:31.103Z,100660.11
2022-12-04T01:35:01.853Z,100657.24
2022-12-04T01:37:34.598Z,100663.21
2022-12-04T01:40:06.081Z,100657.85
2022-12-04T01:42:36.790Z,100652.81
2022-12-04T01:45:41.126Z,100650.33
2022-12-04T01:48:20.008Z,100650.65
2022-12-04T01:50:55.367Z,100639.80
2022-12-04T01:53:26.753Z,100627.01
2022-12-04T01:55:58.619Z,100625.71
2022-12-04T01:58:34.196Z,100623.17
2022-12-04T02:01:09.122Z,100626.98
2022-12-04T02:03:40.842Z,100613.04
2022-12-04T02:06:11.712Z,100612.99
2022-12-04T02:08:42.667Z,100605.35
2022-12-04T02:11:26.816Z,100605.17
2022-12-04T02:14:08.073Z,100604.65
2022-12-04T02:16:46.172Z,100602.93
2022-12-04T02:19:34.758Z,100599.94
2022-12-04T02:22:15.086Z,100599.14
2022-12-04T02:24:54.026Z,100599.10
2022-12-04T02:27:34.980Z,100600.55
2022-12-04T02:30:08.286Z,100599.99
2022-12-04T02:32:46.995Z,100596.55
2022-12-04T02:35:22.872Z,100599.91
2022-12-04T02:38:00.152Z,100603.67
2022-12-04T02:40:38.172Z,100600.82
2022-12-04T02:43:15.013Z,100600.19
2022-12-04T02:45:49.381Z,100591.48
2022-12-04T02:48:23.370Z,100593.55
2022-12-04T02:50:57.853Z,100590.30
2022-12-04T02:53:33.004Z,100599.61
2022-12-04T02:56:07.843Z,100600.54
2022-12-04T02:58:45.742Z,100598.23
2022-12-04T03:01:20.430Z,100596.57
2022-12-04T03:03:56.393Z,100598.66
2022-12-04T03:06:32.299Z,100593.89
2022-12-04T03:09:08.782Z,100592.33
2022-12-04T03:11:44.811Z,100589.39
2022-12-04T03:14:19.200Z,100590.37
2022-12-04T03:16:53.098Z,100586.86
2022-12-04T03:19:28.161Z,100580.54
2022-12-04T03:22:02.320Z,100579.56
2022-12-04T03:24:37.556Z,100585.83
2022-12-04T03:27:13.884Z,100586.09
2022-12-04T03:29:51.299Z,100585.16
2022-12-04T03:32:27.843Z,100585.64
2022-12-04T03:35:04.332Z,100584.30
2022-12-04T03:37:42.230Z,100580.71
2022-12-04T03:40:21.079Z,100590.95
2022-12-04T03:42:57.816Z,100592.19
2022-12-04T03:45:37.562Z,100587.52
2022-12-04T03:48:22.666Z,100593.93
2022-12-04T03:50:58.787Z,100592.36
2022-12-04T03:53:36.057Z,100589.25
2022-12-04T03:56:12.070Z,100597.48
2022-12-04T03:58:47.723Z,100600.08
2022-12-04T04:01:22.118Z,100602.70
2022-12-04T04:03:56.278Z,100598.95
2022-12-04T04:06:31.947Z,100598.27
2022-12-04T04:09:08.295Z,100598.21
2022-12-04T04:11:44.693Z,100597.98
2022-12-04T04:14:37.343Z,100594.85
2022-12-04T04:17:34.918Z,100598.70
2022-12-04T04:20:32.988Z,100598.35
2022-12-04T04:23:24.336Z,100606.06
2022-12-04T04:25:58.051Z,100598.13
2022-12-04T04:28:34.167Z,100598.61
2022-12-04T04:31:22.756Z,100595.01
2022-12-04T04:34:00.846Z,100594.77
2022-12-04T04:36:42.674Z,100597.54
2022-12-04T04:39:22.562Z,100591.50
2022-12-04T04:41:58.875Z,100596.23
2022-12-04T04:44:39.773Z,100595.88
2022-12-04T04:47:17.827Z,100589.86
2022-12-04T04:49:51.004Z,100588.60
2022-12-04T04:52:21.433Z,100587.73
2022-12-04T04:54:52.166Z,100585.63
2022-12-04T04:57:35.923Z,100591.23
2022-12-04T05:00:08.702Z,100590.55
2022-12-04T05:02:39.758Z,100585.66
2022-12-04T05:05:11.510Z,100585.05
2022-12-04T05:07:42.440Z,100591.29
2022-12-04T05:10:14.008Z,100588.36
2022-12-04T05:12:44.627Z,100579.59
2022-12-04T05:15:15.452Z,100580.55
2022-12-04T05:17:46.126Z,100584.32
2022-12-04T05:20:17.035Z,100581.15
2022-12-04T05:22:47.594Z,100581.31
2022-12-04T05:25:18.519Z,100578.68
2022-12-04T05:27:49.173Z,100581.00
2022-12-04T05:30:20.482Z,100579.54
2022-12-04T05:32:51.232Z,100575.41
2022-12-04T05:35:22.107Z,100572.05
2022-12-04T05:37:52.786Z,100573.50
2022-12-04T05:40:23.669Z,100575.02
2022-12-04T05:42:54.286Z,100574.80
2022-12-04T05:45:25.006Z,100567.40
2022-12-04T05:47:55.570Z,100567.89
2022-12-04T05:50:26.260Z,100565.51
2022-12-04T05:52:56.843Z,100564.34
2022-12-04T05:55:27.590Z,100562.64
2022-12-04T05:57:58.394Z,100564.80
2022-12-04T06:00:29.196Z,100559.12
2022-12-04T06:02:59.875Z,100561.30
2022-12-04T06:05:30.609Z,100555.18
2022-12-04T06:08:01.395Z,100552.17
2022-12-04T06:10:32.838Z,100552.73
2022-12-04T06:13:03.480Z,100553.73
2022-12-04T06:15:37.419Z,100554.23
2022-12-04T06:18:08.562Z,100556.58
2022-12-04T06:20:39.316Z,100552.23
2022-12-04T06:23:10.185Z,100553.75
2022-12-04T06:25:40.914Z,100556.67
2022-12-04T06:28:11.547Z,100556.69
2022-12-04T06:30:42.205Z,100560.64
2022-12-04T06:33:12.951Z,100565.73
2022-12-04T06:35:43.672Z,100564.45
2022-12-04T06:38:14.397Z,100567.37
2022-12-04T06:40:45.096Z,100566.73
2022-12-04T06:43:15.834Z,100566.15
2022-12-04T06:45:46.651Z,100565.37
2022-12-04T06:48:17.336Z,100568.80
2022-12-04T06:50:48.053Z,100574.05
2022-12-04T06:53:18.685Z,100575.73
2022-12-04T06:55:51.496Z,100579.87
2022-12-04T06:58:22.198Z,100576.77
2022-12-04T07:00:52.959Z,100579.71
2022-12-04T07:03:24.031Z,100579.29
2022-12-04T07:05:54.645Z,100580.17
2022-12-04T07:08:25.438Z,100581.00
2022-12-04T07:10:59.341Z,100577.70
2022-12-04T07:13:30.175Z,100577.97
2022-12-04T07:16:05.006Z,100577.84
2022-12-04T07:18:37.031Z,100575.75
2022-12-04T07:21:10.489Z,100573.16
2022-12-04T07:23:41.491Z,100575.59
2022-12-04T07:26:14.838Z,100576.21
2022-12-04T07:28:46.237Z,100583.23
2022-12-04T07:31:18.715Z,100580.98
2022-12-04T07:33:50.110Z,100582.33
2022-12-04T07:36:22.408Z,100580.58
2022-12-04T07:38:53.833Z,100584.63
2022-12-04T07:41:25.079Z,100584.25
2022-12-04T07:43:56.296Z,100584.05
2022-12-04T07:46:28.780Z,100585.05
2022-12-04T07:49:00.374Z,100580.11
2022-12-04T07:51:31.965Z,100578.55
2022-12-04T07:54:04.446Z,100568.63
2022-12-04T07:56:35.751Z,100570.36
2022-12-04T07:59:06.345Z,100572.69
2022-12-04T08:01:37.169Z,100573.45
2022-12-04T08:04:08.617Z,100574.83
2022-12-04T08:06:39.913Z,100570.91
2022-12-04T08:09:11.021Z,100570.06
2022-12-04T08:11:42.448Z,100566.77
2022-12-04T08:14:14.912Z,100567.90
2022-12-04T08:16:51.028Z,100569.98
2022-12-04T08:19:23.772Z,100569.23
2022-12-04T08:21:56.352Z,100561.04
2022-12-04T08:24:27.008Z,100568.98
2022-12-04T08:26:57.697Z,100567.02
2022-12-04T08:29:28.420Z,100567.52
2022-12-04T08:31:59.626Z,100571.88
2022-12-04T08:34:30.462Z,100573.64
2022-12-04T08:37:01.187Z,100576.73
2022-12-04T08:39:32.263Z,100574.84
2022-12-04T08:42:02.866Z,100570.70
2022-12-04T08:44:33.511Z,100572.62
2022-12-04T08:47:04.131Z,100572.42
2022-12-04T08:49:34.985Z,100571.35
2022-12-04T08:52:05.981Z,100572.60
2022-12-04T08:54:36.605Z,100572.81
2022-12-04T08:57:07.280Z,100571.23
2022-12-04T08:59:38.217Z,100574.14
2022-12-04T09:02:09.826Z,100574.35
2022-12-04T09:04:40.524Z,100570.64
2022-12-04T09:07:11.266Z,100568.84
2022-12-04T09:09:47.906Z,100561.19
2022-12-04T09:12:19.202Z,100559.17
2022-12-04T09:14:49.837Z,100557.38
2022-12-04T09:17:20.699Z,100559.67
2022-12-04T09:19:51.310Z,100555.36
2022-12-04T09:22:21.967Z,100555.17
2022-12-04T09:24:52.766Z,100557.66
2022-12-04T09:27:23.557Z,100555.73
2022-12-04T09:29:54.820Z,100553.84
2022-12-04T09:32:25.638Z,100556.91
2022-12-04T09:34:56.319Z,100558.27
2022-12-04T09:37:27.101Z,100561.86
2022-12-04T09:39:58.026Z,100563.91
2022-12-04T09:42:38.644Z,100559.55
2022-12-04T09:45:15.792Z,100563.19
2022-12-04T09:47:49.739Z,100565.13
2022-12-04T09:50:22.777Z,100563.53
2022-12-04T09:52:59.654Z,100564.98
2022-12-04T09:55:34.027Z,100561.00
2022-12-04T09:58:11.523Z,100556.10
2022-12-04T10:00:47.211Z,100551.33
2022-12-04T10:03:21.155Z,100549.77
2022-12-04T10:06:01.598Z,100553.23
2022-12-04T10:08:36.422Z,100549.10
2022-12-04T10:11:15.786Z,100546.62
2022-12-04T10:14:00.724Z,100548.54
2022-12-04T10:16:41.879Z,100542.95
2022-12-04T10:19:25.569Z,100542.35
2022-12-04T10:22:04.873Z,100542.14
2022-12-04T10:24:46.866Z,100531.87
2022-12-04T10:27:24.815Z,100530.15
2022-12-04T10:29:59.650Z,100532.45
2022-12-04T10:32:33.859Z,100535.13
2022-12-04T10:35:17.115Z,100537.35
2022-12-04T10:37:50.475Z,100534.90
2022-12-04T10:40:26.315Z,100531.75
2022-12-04T10:43:03.761Z,100528.04
2022-12-04T10:45:34.665Z,100519.39
2022-12-04T10:48:08.028Z,100514.91
2022-12-04T10:50:38.761Z,100513.27
2022-12-04T10:53:13.963Z,100511.59
2022-12-04T10:55:45.018Z,100509.71
2022-12-04T10:58:20.546Z,100512.81
2022-12-04T11:01:05.088Z,100505.94
2022-12-04T11:03:36.626Z,100507.94
2022-12-04T11:06:10.515Z,100511.45
2022-12-04T11:08:43.278Z,100503.12
2022-12-04T11:11:16.534Z,100510.20
2022-12-04T11:13:47.244Z,100515.11
2022-12-04T11:16:36.076Z,100511.95
2022-12-04T11:19:19.854Z,100515.20
2022-12-04T11:21:51.386Z,100517.63
2022-12-04T11:24:26.272Z,100521.48
2022-12-04T11:26:57.964Z,100517.44
2022-12-04T11:29:36.536Z,100516.86
2022-12-04T11:32:14.755Z,100515.61
2022-12-04T11:34:48.901Z,100510.90
2022-12-04T11:37:23.916Z,100514.53
2022-12-04T11:39:56.693Z,100507.49
2022-12-04T11:42:30.085Z,100504.23
2022-12-04T11:45:02.277Z,100508.62
2022-12-04T11:47:34.643Z,100505.41
2022-12-04T11:50:14.749Z,100507.52
2022-12-04T11:53:06.654Z,100511.58
2022-12-04T11:55:48.529Z,100507.98
2022-12-04T11:58:55.443Z,100503.81
2022-12-04T12:01:37.627Z,100503.05
2022-12-04T12:04:40.739Z,100499.90
2022-12-04T12:07:25.416Z,100499.87
2022-12-04T12:10:04.701Z,100496.36
2022-12-04T12:12:47.939Z,100488.69
2022-12-04T12:15:27.879Z,100485.70
2022-12-04T12:18:19.118Z,100487.51
2022-12-04T12:21:03.969Z,100484.35
2022-12-04T12:23:50.542Z,100482.54
2022-12-04T12:26:21.755Z,100484.05
2022-12-04T12:29:11.579Z,100477.30
2022-12-04T12:32:00.620Z,100475.02
2022-12-04T12:34:38.587Z,100468.20
2022-12-04T12:37:17.469Z,100471.20
2022-12-04T12:39:52.398Z,100464.89
2022-12-04T12:42:27.918Z,100466.27
2022-12-04T12:45:07.496Z,100465.21
2022-12-04T12:47:44.802Z,100456.03
2022-12-04T12:50:18.650Z,100460.02
2022-12-04T12:52:57.417Z,100454.16
2022-12-04T12:55:31.855Z,100452.81
2022-12-04T12:58:08.527Z,100450.96
2022-12-04T13:00:44.825Z,100450.17
2022-12-04T13:03:40.239Z,100450.67
2022-12-04T13:06:15.912Z,100448.67
2022-12-04T13:08:57.279Z,100434.42
2022-12-04T13:11:29.721Z,100447.59
2022-12-04T13:14:02.368Z,100440.07
2022-12-04T13:16:38.416Z,100437.96
2022-12-04T13:19:17.991Z,100431.77
2022-12-04T13:21:57.387Z,100427.41
2022-12-04T13:24:59.520Z,100421.68
2022-12-04T13:27:42.282Z,100423.46
2022-12-04T13:30:20.071Z,100430.80
2022-12-04T13:33:14.628Z,100426.30
2022-12-04T13:36:07.498Z,100428.80
2022-12-04T13:38:47.455Z,100426.55
2022-12-04T13:41:21.677Z,100429.12
2022-12-04T13:43:53.732Z,100424.48
2022-12-04T13:46:34.085Z,100424.80
2022-12-04T13:49:26.295Z,100423.60
2022-12-04T13:51:58.350Z,100428.82
2022-12-04T13:54:34.934Z,100425.85
2022-12-04T13:57:22.868Z,100425.30
2022-12-04T14:00:08.153Z,100429.37
2022-12-04T14:02:53.023Z,100433.41
2022-12-04T14:05:32.331Z,100430.39
2022-12-04T14:08:08.078Z,100436.04
2022-12-04T14:10:40.470Z,100435.40
2022-12-04T14:13:21.254Z,100439.06
2022-12-04T14:16:07.872Z,100439.96
2022-12-04T14:18:39.401Z,100444.08
2022-12-04T14:21:10.325Z,100448.86
2022-12-04T14:23:42.531Z,100448.27
2022-12-04T14:26:37.295Z,100449.08
2022-12-04T14:29:33.959Z,100452.34
2022-12-04T14:32:15.446Z,100447.36
2022-12-04T14:34:48.046Z,100444.00
2022-12-04T14:37:27.839Z,100439.35
2022-12-04T14:40:00.092Z,100445.72
2022-12-04T14:42:36.811Z,100439.69
2022-12-04T14:45:18.755Z,100436.89
2022-12-04T14:48:00.073Z,100429.50
2022-12-04T14:50:40.721Z,100435.11
2022-12-04T14:53:22.257Z,100434.52
2022-12-04T14:56:07.698Z,100436.11
2022-12-04T14:58:40.586Z,100433.18
2022-12-04T15:01:28.630Z,100428.03
2022-12-04T15:04:08.408Z,100431.54
2022-12-04T15:06:44.634Z,100426.64
2022-12-04T15:09:38.153Z,100423.33
2022-12-04T15:12:34.611Z,100417.42
2022-12-04T15:15:15.096Z,100414.15
2022-12-04T15:17:56.210Z,100415.74
2022-12-04T15:20:27.734Z,100411.70
2022-12-04T15:22:59.797Z,100417.08
2022-12-04T15:25:36.064Z,100410.65
2022-12-04T15:28:13.367Z,100411.41
2022-12-04T15:30:45.242Z,100409.30
2022-12-04T15:33:21.690Z,100402.66
2022-12-04T15:35:57.248Z,100405.86
2022-12-04T15:38:28.467Z,100402.33
2022-12-04T15:41:01.795Z,100403.48
2022-12-04T15:43:39.743Z,100404.89
2022-12-04T15:46:22.654Z,100402.88
2022-12-04T15:48:53.504Z,100403.34
2022-12-04T15:51:24.182Z,100402.09
2022-12-04T15:53:54.948Z,100402.66
2022-12-04T15:56:25.827Z,100403.88
2022-12-04T15:59:00.587Z,100398.79
2022-12-04T16:01:41.511Z,100401.16
2022-12-04T16:04:23.125Z,100396.17
2022-12-04T16:06:54.853Z,100391.60
2022-12-04T16:09:27.513Z,100394.48
2022-12-04T16:12:03.468Z,100393.88
2022-12-04T16:14:34.392Z,100395.23
2022-12-04T16:17:06.610Z,100392.32
2022-12-04T16:19:39.784Z,100401.59
2022-12-04T16:22:20.225Z,100405.30
2022-12-04T16:24:51.781Z,100403.15
2022-12-04T16:27:24.105Z,100400.64
2022-12-04T16:29:55.594Z,100398.84
2022-12-04T16:32:29.762Z,100396.73
2022-12-04T16:35:01.588Z,100398.94
2022-12-04T16:37:32.557Z,100397.80
2022-12-04T16:40:06.579Z,100398.50
2022-12-04T16:42:37.494Z,100399.57
2022-12-04T16:45:22.598Z,100396.30
2022-12-04T16:47:52.324Z,100394.20
2022-12-04T16:50:23.241Z,100402.19
2022-12-04T16:52:54.345Z,100394.32
2022-12-04T16:55:37.428Z,100400.40
2022-12-04T16:58:09.166Z,100389.23
2022-12-04T17:00:39.960Z,100395.48
2022-12-04T17:03:15.502Z,100395.98
2022-12-04T17:05:46.359Z,100392.89
2022-12-04T17:08:17.447Z,100390.19
2022-12-04T17:10:48.721Z,100387.70
2022-12-04T17:13:21.963Z,100390.13
2022-12-04T17:15:52.697Z,100389.45
2022-12-04T17:18:23.455Z,100385.25
2022-12-04T17:20:54.296Z,100384.70
2022-12-04T17:23:25.346Z,100384.94
2022-12-04T17:25:55.921Z,100387.15
2022-12-04T17:28:26.524Z,100388.41
2022-12-04T17:30:57.400Z,100384.85
2022-12-04T17:33:28.574Z,100389.09
2022-12-04T17:36:00.346Z,100386.05
2022-12-04T17:38:31.053Z,100395.13
2022-12-04T17:41:02.948Z,100386.09
2022-12-04T17:43:34.548Z,100384.66
2022-12-04T17:46:09.188Z,100384.42
2022-12-04T17:48:40.323Z,100386.90
2022-12-04T17:51:13.337Z,100383.67
2022-12-04T17:53:42.436Z,100381.20
2022-12-04T17:56:17.375Z,100380.53
2022-12-04T17:58:49.129Z,100382.76
2022-12-04T18:01:22.407Z,100383.34
2022-12-04T18:03:55.190Z,100381.91
2022-12-04T18:06:27.400Z,100382.54
2022-12-04T18:08:59.000Z,100379.54
2022-12-04T18:11:31.568Z,100380.69
2022-12-04T18:14:10.172Z,100379.64
2022-12-04T18:16:45.460Z,100379.55
2022-12-04T18:19:16.985Z,100382.53
2022-12-04T18:21:47.673Z,100382.52
2022-12-04T18:24:19.473Z,100378.09
2022-12-04T18:26:51.336Z,100377.38
2022-12-04T18:29:24.619Z,100378.48
2022-12-04T18:31:56.094Z,100376.52
2022-12-04T18:34:27.206Z,100372.44
2022-12-04T18:36:58.014Z,100373.34
2022-12-04T18:39:29.023Z,100368.63
2022-12-04T18:41:59.667Z,100371.56
2022-12-04T18:44:30.898Z,100371.67
2022-12-04T18:47:01.540Z,100373.55
2022-12-04T18:49:32.527Z,100373.70
2022-12-04T18:52:03.697Z,100376.56
2022-12-04T18:54:34.506Z,100377.11
2022-12-04T18:57:05.118Z,100373.09
2022-12-04T18:59:37.445Z,100372.77
2022-12-04T19:02:08.416Z,100372.41
2022-12-04T19:04:40.140Z,100372.58
2022-12-04T19:07:10.764Z,100365.95
2022-12-04T19:10:09.934Z,100368.45
2022-12-04T19:12:32.128Z,100371.31
2022-12-04T19:15:02.950Z,100366.81
2022-12-04T19:17:33.751Z,100368.27
2022-12-04T19:20:04.703Z,100363.13
2022-12-04T19:22:35.585Z,100367.41
2022-12-04T19:25:07.459Z,100364.11
2022-12-04T19:27:38.102Z,100368.13
2022-12-04T19:30:10.991Z,100372.30
2022-12-04T19:32:41.745Z,100373.13
2022-12-04T19:35:12.891Z,100378.98
2022-12-04T19:37:48.156Z,100374.27
2022-12-04T19:40:22.569Z,100373.09
2022-12-04T19:42:55.899Z,100375.55
2022-12-04T19:45:30.438Z,100371.20
2022-12-04T19:48:01.128Z,100373.78
2022-12-04T19:50:32.468Z,100369.88
2022-12-04T19:53:03.225Z,100370.42
2022-12-04T19:55:36.366Z,100365.69
2022-12-04T19:58:07.796Z,100365.52
2022-12-04T20:00:38.477Z,100368.37
2022-12-04T20:03:09.103Z,100372.23
2022-12-04T20:05:40.411Z,100370.35
2022-12-04T20:10:40.650Z,100368.61
2022-12-04T20:13:12.552Z,100372.59
2022-12-04T20:15:43.374Z,100369.54
2022-12-04T20:18:14.270Z,100375.17
2022-12-04T20:20:47.824Z,100374.65
2022-12-04T20:23:18.471Z,100374.23
2022-12-04T20:25:49.195Z,100377.32
2022-12-04T20:28:21.363Z,100372.38
2022-12-04T20:30:52.391Z,100380.80
2022-12-04T20:33:23.152Z,100378.01
2022-12-04T20:35:55.459Z,100371.97
2022-12-04T20:38:26.389Z,100374.64
2022-12-04T20:40:57.000Z,100371.80
2022-12-04T20:43:28.509Z,100373.27
2022-12-04T20:45:59.237Z,100366.32
2022-12-04T20:48:30.596Z,100368.61
2022-12-04T20:51:03.245Z,100369.15
2022-12-04T20:53:33.926Z,100365.69
2022-12-04T20:56:04.686Z,100370.33
2022-12-04T20:58:35.421Z,100363.95
2022-12-04T21:01:10.445Z,100360.84
2022-12-04T21:03:42.038Z,100356.90
2022-12-04T21:06:17.059Z,100358.42
2022-12-04T21:08:54.095Z,100353.63
2022-12-04T21:11:25.567Z,100350.05
2022-12-04T21:14:15.946Z,100353.75
2022-12-04T21:16:48.370Z,100357.48
2022-12-04T21:19:20.929Z,100353.86
2022-12-04T21:21:52.827Z,100353.70
2022-12-04T21:24:26.586Z,100354.54
2022-12-04T21:26:57.488Z,100354.20
2022-12-04T21:29:28.283Z,100350.89
2022-12-04T21:31:58.856Z,100344.81
2022-12-04T21:34:29.712Z,100348.07
2022-12-04T21:37:00.409Z,100344.75
2022-12-04T21:39:31.153Z,100337.80
2022-12-04T21:42:19.758Z,100332.45
2022-12-04T21:44:50.579Z,100330.87
2022-12-04T21:47:21.295Z,100319.50
2022-12-04T21:49:52.072Z,100318.21
2022-12-04T21:52:23.303Z,100316.95
2022-12-04T21:54:55.267Z,100314.52
2022-12-04T21:57:26.395Z,100318.48
2022-12-04T21:59:57.389Z,100318.73
2022-12-04T22:02:28.483Z,100325.86
2022-12-04T22:04:59.313Z,100324.80
2022-12-04T22:07:29.917Z,100322.45
2022-12-04T22:10:04.076Z,100321.89
2022-12-04T22:12:52.131Z,100328.48
2022-12-04T22:15:22.859Z,100327.61
2022-12-04T22:17:53.904Z,100328.40
2022-12-04T22:20:24.507Z,100329.98
2022-12-04T22:22:55.147Z,100326.98
2022-12-04T22:25:25.859Z,100324.83
2022-12-04T22:27:57.013Z,100328.89
2022-12-04T22:30:28.991Z,100328.05
2022-12-04T22:32:59.613Z,100331.92
2022-12-04T22:35:30.330Z,100339.61
2022-12-04T22:38:00.944Z,100338.34
2022-12-04T22:40:31.543Z,100334.98
2022-12-04T22:43:02.110Z,100333.30
2022-12-04T22:45:32.950Z,100328.92
2022-12-04T22:48:03.773Z,100322.85
2022-12-04T22:50:34.414Z,100320.97
2022-12-04T22:53:05.052Z,100326.95
2022-12-04T22:55:37.378Z,100324.44
2022-12-04T22:58:08.032Z,100319.13
2022-12-04T23:00:38.719Z,100322.55
2022-12-04T23:03:09.434Z,100319.10
2022-12-04T23:05:40.612Z,100316.61
2022-12-04T23:08:11.358Z,100315.86
2022-12-04T23:10:42.213Z,100317.41
2022-12-04T23:13:13.013Z,100316.19
2022-12-04T23:15:43.740Z,100316.30
2022-12-04T23:18:14.305Z,100323.44
2022-12-04T23:20:44.926Z,100320.27
2022-12-04T23:23:15.655Z,100323.05
2022-12-04T23:25:46.327Z,100325.40
2022-12-04T23:28:17.015Z,100325.52
2022-12-04T23:30:50.539Z,100321.98
2022-12-04T23:33:21.199Z,100314.67
2022-12-04T23:35:55.307Z,100309.71
2022-12-04T23:38:27.801Z,100309.12
2022-12-04T23:41:05.105Z,100305.25
2022-12-04T23:43:36.240Z,100307.76
2022-12-04T23:46:11.380Z,100308.12
2022-12-04T23:48:43.558Z,100309.70
2022-12-04T23:51:16.119Z,100308.64
2022-12-04T23:53:47.616Z,100304.85
2022-12-04T23:56:20.411Z,100318.83
2022-12-04T23:58:53.037Z,100320.93
